sensor_id;sensor_type;location;lat;lon;timestamp;pressure;altitude;pressure_sealevel;temperature;humidity
35419;BME280;21525;41.240;16.500;2023-03-04T00:00:31;101074.66;;;16.64;77.76
35419;BME280;21525;41.240;16.500;2023-03-04T00:02:57;101092.00;;;16.70;81.86
35419;BME280;21525;41.240;16.500;2023-03-04T00:05:23;101086.84;;;16.67;89.09
35419;BME280;21525;41.240;16.500;2023-03-04T00:07:49;101068.88;;;16.53;100.00
35419;BME280;21525;41.240;16.500;2023-03-04T00:10:15;101071.19;;;16.62;100.00
35419;BME280;21525;41.240;16.500;2023-03-04T00:12:40;101068.56;;;15.46;100.00
35419;BME280;21525;41.240;16.500;2023-03-04T00:15:07;101070.81;;;15.60;100.00
35419;BME280;21525;41.240;16.500;2023-03-04T00:17:33;101074.09;;;15.68;100.00
35419;BME280;21525;41.240;16.500;2023-03-04T00:19:58;101067.97;;;15.67;100.00
35419;BME280;21525;41.240;16.500;2023-03-04T00:22:24;101060.03;;;16.00;100.00
35419;BME280;21525;41.240;16.500;2023-03-04T00:24:50;101070.13;;;16.13;100.00
35419;BME280;21525;41.240;16.500;2023-03-04T00:27:16;101060.16;;;17.05;95.94
35419;BME280;21525;41.240;16.500;2023-03-04T00:29:41;101063.16;;;16.68;98.08
35419;BME280;21525;41.240;16.500;2023-03-04T00:32:07;101059.25;;;17.55;89.02
35419;BME280;21525;41.240;16.500;2023-03-04T00:34:33;101063.06;;;17.94;88.41
35419;BME280;21525;41.240;16.500;2023-03-04T00:36:59;101065.25;;;17.58;84.81
35419;BME280;21525;41.240;16.500;2023-03-04T00:39:27;101063.06;;;17.94;84.45
35419;BME280;21525;41.240;16.500;2023-03-04T00:41:53;101068.03;;;17.30;89.17
35419;BME280;21525;41.240;16.500;2023-03-04T00:44:19;101071.59;;;17.54;85.93
35419;BME280;21525;41.240;16.500;2023-03-04T00:46:44;101066.47;;;18.20;83.44
35419;BME280;21525;41.240;16.500;2023-03-04T00:49:10;101077.16;;;17.93;85.45
35419;BME280;21525;41.240;16.500;2023-03-04T00:51:37;101061.00;;;18.48;82.18
35419;BME280;21525;41.240;16.500;2023-03-04T00:54:03;101070.72;;;18.45;82.87
35419;BME280;21525;41.240;16.500;2023-03-04T00:56:29;101075.06;;;18.25;83.91
35419;BME280;21525;41.240;16.500;2023-03-04T00:58:55;101063.38;;;18.75;81.91
35419;BME280;21525;41.240;16.500;2023-03-04T01:01:21;101060.75;;;18.75;82.48
35419;BME280;21525;41.240;16.500;2023-03-04T01:03:47;101047.03;;;18.88;83.10
35419;BME280;21525;41.240;16.500;2023-03-04T01:06:12;101033.66;;;18.92;82.21
35419;BME280;21525;41.240;16.500;2023-03-04T01:08:39;101027.00;;;18.63;81.71
35419;BME280;21525;41.240;16.500;2023-03-04T01:11:05;101041.00;;;19.06;77.46
35419;BME280;21525;41.240;16.500;2023-03-04T01:13:31;101039.13;;;18.88;75.57
35419;BME280;21525;41.240;16.500;2023-03-04T01:15:57;101044.25;;;17.33;84.29
35419;BME280;21525;41.240;16.500;2023-03-04T01:18:24;101023.69;;;18.36;79.37
35419;BME280;21525;41.240;16.500;2023-03-04T01:20:50;101034.28;;;18.35;80.40
35419;BME280;21525;41.240;16.500;2023-03-04T01:23:16;101046.38;;;16.72;97.62
35419;BME280;21525;41.240;16.500;2023-03-04T01:25:42;101050.75;;;16.18;97.60
35419;BME280;21525;41.240;16.500;2023-03-04T01:28:08;101064.00;;;16.41;94.64
35419;BME280;21525;41.240;16.500;2023-03-04T01:30:34;101063.88;;;16.18;94.27
35419;BME280;21525;41.240;16.500;2023-03-04T01:32:59;101080.59;;;14.12;100.00
35419;BME280;21525;41.240;16.500;2023-03-04T01:35:25;101063.56;;;14.70;100.00
35419;BME280;21525;41.240;16.500;2023-03-04T01:37:51;101055.28;;;15.52;100.00
35419;BME280;21525;41.240;16.500;2023-03-04T01:40:17;101041.53;;;16.04;100.00
35419;BME280;21525;41.240;16.500;2023-03-04T01:42:43;101047.13;;;16.22;100.00
35419;BME280;21525;41.240;16.500;2023-03-04T01:45:15;101035.81;;;16.74;100.00
35419;BME280;21525;41.240;16.500;2023-03-04T01:47:43;101036.00;;;16.13;100.00
35419;BME280;21525;41.240;16.500;2023-03-04T01:50:19;101022.25;;;17.12;99.46
35419;BME280;21525;41.240;16.500;2023-03-04T01:52:46;101009.28;;;17.31;95.88
35419;BME280;21525;41.240;16.500;2023-03-04T01:55:20;100997.88;;;17.79;90.33
35419;BME280;21525;41.240;16.500;2023-03-04T01:57:49;101004.81;;;17.33;89.85
35419;BME280;21525;41.240;16.500;2023-03-04T02:00:20;101007.28;;;17.61;89.77
35419;BME280;21525;41.240;16.500;2023-03-04T02:02:49;101016.25;;;17.56;88.92
35419;BME280;21525;41.240;16.500;2023-03-04T02:05:16;101015.72;;;17.71;88.90
35419;BME280;21525;41.240;16.500;2023-03-04T02:07:42;101030.78;;;16.40;98.44
35419;BME280;21525;41.240;16.500;2023-03-04T02:10:10;101030.69;;;16.43;100.00
35419;BME280;21525;41.240;16.500;2023-03-04T02:12:36;101025.81;;;16.31;100.00
35419;BME280;21525;41.240;16.500;2023-03-04T02:15:03;101011.88;;;17.08;100.00
35419;BME280;21525;41.240;16.500;2023-03-04T02:17:31;101006.47;;;17.12;98.23
35419;BME280;21525;41.240;16.500;2023-03-04T02:22:28;101002.94;;;17.13;100.00
35419;BME280;21525;41.240;16.500;2023-03-04T02:24:59;100999.06;;;16.20;100.00
35419;BME280;21525;41.240;16.500;2023-03-04T02:27:28;100990.63;;;16.63;100.00
35419;BME280;21525;41.240;16.500;2023-03-04T02:29:54;100997.53;;;16.40;100.00
35419;BME280;21525;41.240;16.500;2023-03-04T02:32:20;100993.03;;;16.70;100.00
35419;BME280;21525;41.240;16.500;2023-03-04T02:34:48;100993.53;;;16.55;100.00
35419;BME280;21525;41.240;16.500;2023-03-04T02:37:14;100996.66;;;15.55;100.00
35419;BME280;21525;41.240;16.500;2023-03-04T02:39:44;100981.78;;;16.92;100.00
35419;BME280;21525;41.240;16.500;2023-03-04T02:42:10;100985.84;;;15.36;100.00
35419;BME280;21525;41.240;16.500;2023-03-04T02:44:39;100999.50;;;14.50;100.00
35419;BME280;21525;41.240;16.500;2023-03-04T02:47:08;100993.28;;;14.88;100.00
35419;BME280;21525;41.240;16.500;2023-03-04T02:49:36;100979.00;;;16.19;100.00
35419;BME280;21525;41.240;16.500;2023-03-04T02:52:05;100986.34;;;15.49;100.00
35419;BME280;21525;41.240;16.500;2023-03-04T02:54:32;100979.75;;;16.22;100.00
35419;BME280;21525;41.240;16.500;2023-03-04T02:57:02;100972.69;;;16.51;100.00
35419;BME280;21525;41.240;16.500;2023-03-04T02:59:30;100984.97;;;15.04;100.00
35419;BME280;21525;41.240;16.500;2023-03-04T03:01:56;100987.88;;;14.61;100.00
35419;BME280;21525;41.240;16.500;2023-03-04T03:04:23;100976.84;;;14.83;100.00
35419;BME280;21525;41.240;16.500;2023-03-04T03:06:52;100979.06;;;15.27;100.00
35419;BME280;21525;41.240;16.500;2023-03-04T03:09:18;100973.44;;;15.72;100.00
35419;BME280;21525;41.240;16.500;2023-03-04T03:11:44;100980.81;;;15.28;100.00
35419;BME280;21525;41.240;16.500;2023-03-04T03:14:11;100975.63;;;15.58;100.00
35419;BME280;21525;41.240;16.500;2023-03-04T03:16:37;100973.72;;;15.01;100.00
35419;BME280;21525;41.240;16.500;2023-03-04T03:19:03;100982.44;;;14.32;100.00
35419;BME280;21525;41.240;16.500;2023-03-04T03:21:30;100975.69;;;14.60;100.00
35419;BME280;21525;41.240;16.500;2023-03-04T03:23:56;100977.13;;;14.35;100.00
35419;BME280;21525;41.240;16.500;2023-03-04T03:26:21;100975.06;;;14.51;100.00
35419;BME280;21525;41.240;16.500;2023-03-04T03:28:47;100977.25;;;14.30;100.00
35419;BME280;21525;41.240;16.500;2023-03-04T03:31:13;100979.59;;;15.40;100.00
35419;BME280;21525;41.240;16.500;2023-03-04T03:33:39;100982.19;;;15.10;100.00
35419;BME280;21525;41.240;16.500;2023-03-04T03:36:05;100973.06;;;15.25;100.00
35419;BME280;21525;41.240;16.500;2023-03-04T03:38:31;100975.16;;;14.80;100.00
35419;BME280;21525;41.240;16.500;2023-03-04T03:40:57;100979.59;;;14.05;100.00
35419;BME280;21525;41.240;16.500;2023-03-04T03:43:23;100965.69;;;14.74;100.00
35419;BME280;21525;41.240;16.500;2023-03-04T03:45:49;100971.28;;;15.26;100.00
35419;BME280;21525;41.240;16.500;2023-03-04T03:48:16;100971.78;;;14.41;100.00
35419;BME280;21525;41.240;16.500;2023-03-04T03:50:42;100975.97;;;15.15;100.00
35419;BME280;21525;41.240;16.500;2023-03-04T03:53:08;100975.59;;;14.96;100.00
35419;BME280;21525;41.240;16.500;2023-03-04T03:55:34;100977.66;;;14.85;100.00
35419;BME280;21525;41.240;16.500;2023-03-04T03:57:59;100965.84;;;14.68;100.00
35419;BME280;21525;41.240;16.500;2023-03-04T04:00:25;100971.16;;;14.65;100.00
35419;BME280;21525;41.240;16.500;2023-03-04T04:02:53;100969.06;;;14.79;100.00
35419;BME280;21525;41.240;16.500;2023-03-04T04:05:20;100970.69;;;14.51;100.00
35419;BME280;21525;41.240;16.500;2023-03-04T04:07:46;100965.59;;;15.41;100.00
35419;BME280;21525;41.240;16.500;2023-03-04T04:10:11;100963.00;;;15.10;100.00
35419;BME280;21525;41.240;16.500;2023-03-04T04:12:37;100959.28;;;15.48;100.00
35419;BME280;21525;41.240;16.500;2023-03-04T04:15:03;100965.47;;;15.45;100.00
35419;BME280;21525;41.240;16.500;2023-03-04T04:17:29;100959.94;;;14.62;100.00
35419;BME280;21525;41.240;16.500;2023-03-04T04:19:55;100967.03;;;14.57;100.00
35419;BME280;21525;41.240;16.500;2023-03-04T04:22:21;100960.88;;;14.59;100.00
35419;BME280;21525;41.240;16.500;2023-03-04T04:24:47;100960.75;;;14.62;100.00
35419;BME280;21525;41.240;16.500;2023-03-04T04:27:13;100956.38;;;16.15;100.00
35419;BME280;21525;41.240;16.500;2023-03-04T04:29:40;100968.16;;;15.13;100.00
35419;BME280;21525;41.240;16.500;2023-03-04T04:32:06;100955.13;;;15.70;100.00
35419;BME280;21525;41.240;16.500;2023-03-04T04:34:33;100951.44;;;15.46;100.00
35419;BME280;21525;41.240;16.500;2023-03-04T04:36:59;100959.84;;;15.28;100.00
35419;BME280;21525;41.240;16.500;2023-03-04T04:39:25;100953.44;;;15.07;100.00
35419;BME280;21525;41.240;16.500;2023-03-04T04:41:51;100954.03;;;15.48;100.00
35419;BME280;21525;41.240;16.500;2023-03-04T04:44:16;100952.41;;;15.44;100.00
35419;BME280;21525;41.240;16.500;2023-03-04T04:46:42;100954.91;;;16.32;100.00
35419;BME280;21525;41.240;16.500;2023-03-04T04:49:09;100962.84;;;15.45;100.00
35419;BME280;21525;41.240;16.500;2023-03-04T04:51:35;100958.75;;;15.94;100.00
35419;BME280;21525;41.240;16.500;2023-03-04T04:54:02;100969.63;;;15.23;100.00
35419;BME280;21525;41.240;16.500;2023-03-04T04:56:28;100971.53;;;14.52;100.00
35419;BME280;21525;41.240;16.500;2023-03-04T04:58:59;100964.56;;;15.46;100.00
35419;BME280;21525;41.240;16.500;2023-03-04T05:01:26;100958.75;;;15.94;96.75
35419;BME280;21525;41.240;16.500;2023-03-04T05:03:53;100956.47;;;16.38;93.73
35419;BME280;21525;41.240;16.500;2023-03-04T05:06:21;100965.63;;;15.98;92.02
35419;BME280;21525;41.240;16.500;2023-03-04T05:08:48;100965.31;;;15.81;92.54
35419;BME280;21525;41.240;16.500;2023-03-04T05:11:14;100961.94;;;15.46;93.18
35419;BME280;21525;41.240;16.500;2023-03-04T05:13:40;100953.38;;;16.25;86.63
35419;BME280;21525;41.240;16.500;2023-03-04T05:16:06;100956.97;;;16.49;86.79
35419;BME280;21525;41.240;16.500;2023-03-04T05:18:32;100965.28;;;16.62;83.36
35419;BME280;21525;41.240;16.500;2023-03-04T05:21:00;100964.59;;;15.76;87.21
35419;BME280;21525;41.240;16.500;2023-03-04T05:23:28;100962.28;;;16.21;84.55
35419;BME280;21525;41.240;16.500;2023-03-04T05:25:54;100968.75;;;15.83;86.34
35419;BME280;21525;41.240;16.500;2023-03-04T05:28:20;100964.38;;;16.63;83.33
35419;BME280;21525;41.240;16.500;2023-03-04T05:30:46;100957.47;;;16.87;80.34
35419;BME280;21525;41.240;16.500;2023-03-04T05:33:14;100956.47;;;16.64;80.73
35419;BME280;21525;41.240;16.500;2023-03-04T05:35:41;100960.72;;;16.68;81.01
35419;BME280;21525;41.240;16.500;2023-03-04T05:38:10;100958.94;;;16.94;77.98
35419;BME280;21525;41.240;16.500;2023-03-04T05:40:36;100960.59;;;17.44;75.32
35419;BME280;21525;41.240;16.500;2023-03-04T05:43:02;100965.69;;;17.49;74.86
35419;BME280;21525;41.240;16.500;2023-03-04T05:45:28;100955.47;;;17.65;73.98
35419;BME280;21525;41.240;16.500;2023-03-04T05:47:54;100959.91;;;17.86;73.61
35419;BME280;21525;41.240;16.500;2023-03-04T05:50:21;100970.44;;;17.86;74.60
35419;BME280;21525;41.240;16.500;2023-03-04T05:52:48;100970.09;;;17.94;72.41
35419;BME280;21525;41.240;16.500;2023-03-04T05:55:15;100977.03;;;17.96;74.09
35419;BME280;21525;41.240;16.500;2023-03-04T05:57:41;100974.53;;;18.15;73.15
35419;BME280;21525;41.240;16.500;2023-03-04T06:00:08;100976.84;;;18.01;76.13
35419;BME280;21525;41.240;16.500;2023-03-04T06:02:41;100981.00;;;18.28;75.40
35419;BME280;21525;41.240;16.500;2023-03-04T06:05:08;100978.34;;;18.50;75.38
35419;BME280;21525;41.240;16.500;2023-03-04T06:07:35;100992.59;;;18.02;79.30
35419;BME280;21525;41.240;16.500;2023-03-04T06:10:02;100990.31;;;17.93;79.21
35419;BME280;21525;41.240;16.500;2023-03-04T06:12:29;100993.38;;;18.04;78.55
35419;BME280;21525;41.240;16.500;2023-03-04T06:14:54;100999.59;;;18.24;76.45
35419;BME280;21525;41.240;16.500;2023-03-04T06:17:21;100997.78;;;18.26;75.17
35419;BME280;21525;41.240;16.500;2023-03-04T06:19:46;101004.63;;;18.30;76.90
35419;BME280;21525;41.240;16.500;2023-03-04T06:22:12;101005.63;;;18.05;77.02
35419;BME280;21525;41.240;16.500;2023-03-04T06:24:38;101009.78;;;18.33;76.62
35419;BME280;21525;41.240;16.500;2023-03-04T06:27:04;101012.41;;;18.33;76.30
35419;BME280;21525;41.240;16.500;2023-03-04T06:29:30;101004.81;;;18.25;78.53
35419;BME280;21525;41.240;16.500;2023-03-04T06:31:56;101011.84;;;18.25;78.74
35419;BME280;21525;41.240;16.500;2023-03-04T06:34:22;101018.16;;;18.21;80.91
35419;BME280;21525;41.240;16.500;2023-03-04T06:36:48;101019.41;;;18.34;79.59
35419;BME280;21525;41.240;16.500;2023-03-04T06:39:14;101019.28;;;18.37;80.25
35419;BME280;21525;41.240;16.500;2023-03-04T06:41:40;101014.44;;;18.48;79.79
35419;BME280;21525;41.240;16.500;2023-03-04T06:44:06;101026.44;;;18.33;81.09
35419;BME280;21525;41.240;16.500;2023-03-04T06:46:33;101025.63;;;18.31;81.47
35419;BME280;21525;41.240;16.500;2023-03-04T06:48:59;101022.72;;;18.61;79.78
35419;BME280;21525;41.240;16.500;2023-03-04T06:51:25;101022.47;;;18.67;79.19
35419;BME280;21525;41.240;16.500;2023-03-04T06:53:51;101030.06;;;18.31;81.31
35419;BME280;21525;41.240;16.500;2023-03-04T06:56:17;101030.69;;;18.58;81.03
35419;BME280;21525;41.240;16.500;2023-03-04T06:58:43;101032.53;;;18.56;80.71
35419;BME280;21525;41.240;16.500;2023-03-04T07:01:12;101038.13;;;18.26;82.75
35419;BME280;21525;41.240;16.500;2023-03-04T07:03:38;101044.44;;;18.22;84.60
35419;BME280;21525;41.240;16.500;2023-03-04T07:06:04;101043.84;;;18.16;84.65
35419;BME280;21525;41.240;16.500;2023-03-04T07:08:30;101048.47;;;18.31;84.59
35419;BME280;21525;41.240;16.500;2023-03-04T07:10:56;101042.78;;;18.41;85.19
35419;BME280;21525;41.240;16.500;2023-03-04T07:13:21;101046.28;;;18.42;83.83
35419;BME280;21525;41.240;16.500;2023-03-04T07:15:47;101050.34;;;18.51;83.65
35419;BME280;21525;41.240;16.500;2023-03-04T07:18:13;101053.28;;;18.65;82.32
35419;BME280;21525;41.240;16.500;2023-03-04T07:20:39;101053.41;;;18.62;83.49
35419;BME280;21525;41.240;16.500;2023-03-04T07:23:05;101049.91;;;18.39;85.42
35419;BME280;21525;41.240;16.500;2023-03-04T07:25:30;101054.91;;;18.24;86.16
35419;BME280;21525;41.240;16.500;2023-03-04T07:27:56;101060.22;;;18.22;82.28
35419;BME280;21525;41.240;16.500;2023-03-04T07:30:22;101057.56;;;18.45;78.24
35419;BME280;21525;41.240;16.500;2023-03-04T07:32:48;101052.34;;;18.44;78.58
35419;BME280;21525;41.240;16.500;2023-03-04T07:35:13;101054.69;;;18.73;77.88
35419;BME280;21525;41.240;16.500;2023-03-04T07:37:39;101053.97;;;19.31;74.27
35419;BME280;21525;41.240;16.500;2023-03-04T07:40:06;101063.94;;;18.84;77.30
35419;BME280;21525;41.240;16.500;2023-03-04T07:42:35;101063.72;;;18.88;78.18
35419;BME280;21525;41.240;16.500;2023-03-04T07:45:08;101064.44;;;18.92;79.02
35419;BME280;21525;41.240;16.500;2023-03-04T07:47:34;101067.94;;;18.92;78.93
35419;BME280;21525;41.240;16.500;2023-03-04T07:50:00;101062.78;;;18.89;77.54
35419;BME280;21525;41.240;16.500;2023-03-04T07:52:26;101068.25;;;18.85;79.24
35419;BME280;21525;41.240;16.500;2023-03-04T07:54:51;101064.91;;;18.81;80.36
35419;BME280;21525;41.240;16.500;2023-03-04T07:57:17;101067.69;;;18.98;81.00
35419;BME280;21525;41.240;16.500;2023-03-04T07:59:43;101065.25;;;19.34;80.15
35419;BME280;21525;41.240;16.500;2023-03-04T08:02:09;101071.03;;;18.60;84.01
35419;BME280;21525;41.240;16.500;2023-03-04T08:04:35;101069.56;;;18.74;85.17
35419;BME280;21525;41.240;16.500;2023-03-04T08:07:01;101077.59;;;18.71;84.30
35419;BME280;21525;41.240;16.500;2023-03-04T08:09:27;101076.13;;;19.06;83.18
35419;BME280;21525;41.240;16.500;2023-03-04T08:11:53;101080.13;;;18.95;84.13
35419;BME280;21525;41.240;16.500;2023-03-04T08:14:19;101077.38;;;18.98;83.30
35419;BME280;21525;41.240;16.500;2023-03-04T08:16:45;101071.25;;;18.97;82.41
35419;BME280;21525;41.240;16.500;2023-03-04T08:19:11;101064.91;;;18.81;82.35
35419;BME280;21525;41.240;16.500;2023-03-04T08:21:36;101062.34;;;19.20;80.71
35419;BME280;21525;41.240;16.500;2023-03-04T08:24:03;101067.28;;;19.28;80.59
35419;BME280;21525;41.240;16.500;2023-03-04T08:26:44;101068.69;;;19.36;80.25
35419;BME280;21525;41.240;16.500;2023-03-04T08:29:14;101073.56;;;19.25;80.26
35419;BME280;21525;41.240;16.500;2023-03-04T08:31:40;101062.47;;;19.58;78.92
35419;BME280;21525;41.240;16.500;2023-03-04T08:34:07;101061.84;;;19.71;77.35
35419;BME280;21525;41.240;16.500;2023-03-04T08:36:35;101067.31;;;19.07;81.88
35419;BME280;21525;41.240;16.500;2023-03-04T08:39:02;101070.06;;;19.25;81.24
35419;BME280;21525;41.240;16.500;2023-03-04T08:41:27;101074.09;;;19.54;80.10
35419;BME280;21525;41.240;16.500;2023-03-04T08:43:53;101077.31;;;19.40;79.56
35419;BME280;21525;41.240;16.500;2023-03-04T08:46:19;101078.56;;;19.52;78.14
35419;BME280;21525;41.240;16.500;2023-03-04T08:48:45;101079.34;;;19.33;79.31
35419;BME280;21525;41.240;16.500;2023-03-04T08:51:13;101074.88;;;19.56;75.41
35419;BME280;21525;41.240;16.500;2023-03-04T08:53:39;101083.13;;;19.48;77.89
35419;BME280;21525;41.240;16.500;2023-03-04T08:56:06;101078.84;;;19.85;75.84
35419;BME280;21525;41.240;16.500;2023-03-04T08:58:32;101080.63;;;19.84;72.11
35419;BME280;21525;41.240;16.500;2023-03-04T09:00:59;101080.75;;;19.62;73.47
35419;BME280;21525;41.240;16.500;2023-03-04T09:03:25;101079.28;;;19.75;71.99
35419;BME280;21525;41.240;16.500;2023-03-04T09:05:51;101082.53;;;19.41;75.52
35419;BME280;21525;41.240;16.500;2023-03-04T09:08:17;101078.44;;;19.55;74.40
35419;BME280;21525;41.240;16.500;2023-03-04T09:10:44;101079.69;;;19.85;73.37
35419;BME280;21525;41.240;16.500;2023-03-04T09:13:12;101081.03;;;20.31;71.52
35419;BME280;21525;41.240;16.500;2023-03-04T09:15:45;101078.63;;;20.27;70.47
35419;BME280;21525;41.240;16.500;2023-03-04T09:18:12;101069.41;;;20.54;67.06
35419;BME280;21525;41.240;16.500;2023-03-04T09:20:39;101063.53;;;20.66;64.88
35419;BME280;21525;41.240;16.500;2023-03-04T09:23:05;101068.59;;;20.52;65.47
35419;BME280;21525;41.240;16.500;2023-03-04T09:25:32;101070.25;;;20.36;64.45
35419;BME280;21525;41.240;16.500;2023-03-04T09:27:58;101065.75;;;20.57;63.99
35419;BME280;21525;41.240;16.500;2023-03-04T09:30:24;101064.53;;;20.81;60.16
35419;BME280;21525;41.240;16.500;2023-03-04T09:32:49;101069.44;;;21.06;59.46
35419;BME280;21525;41.240;16.500;2023-03-04T09:35:15;101072.75;;;20.58;56.54
35419;BME280;21525;41.240;16.500;2023-03-04T09:37:41;101071.91;;;20.20;58.66
35419;BME280;21525;41.240;16.500;2023-03-04T09:40:10;101072.59;;;18.86;64.73
35419;BME280;21525;41.240;16.500;2023-03-04T09:42:46;101070.88;;;18.64;65.11
35419;BME280;21525;41.240;16.500;2023-03-04T09:45:17;101069.66;;;20.12;61.72
35419;BME280;21525;41.240;16.500;2023-03-04T09:47:45;101075.44;;;18.16;65.22
35419;BME280;21525;41.240;16.500;2023-03-04T09:50:12;101082.41;;;18.17;65.42
35419;BME280;21525;41.240;16.500;2023-03-04T09:55:27;101077.66;;;19.53;61.91
35419;BME280;21525;41.240;16.500;2023-03-04T10:01:11;101079.38;;;18.49;63.75
35419;BME280;21525;41.240;16.500;2023-03-04T10:06:12;101089.63;;;18.78;63.05
35419;BME280;21525;41.240;16.500;2023-03-04T10:09:15;101090.44;;;19.62;58.04
35419;BME280;21525;41.240;16.500;2023-03-04T10:11:58;101086.44;;;20.11;56.27
35419;BME280;21525;41.240;16.500;2023-03-04T10:17:20;101081.59;;;19.22;59.86
35419;BME280;21525;41.240;16.500;2023-03-04T10:19:53;101086.31;;;18.94;60.46
35419;BME280;21525;41.240;16.500;2023-03-04T10:24:55;101084.03;;;19.06;62.48
35419;BME280;21525;41.240;16.500;2023-03-04T10:27:22;101093.50;;;18.90;62.23
35419;BME280;21525;41.240;16.500;2023-03-04T10:29:50;101090.97;;;19.09;63.60
35419;BME280;21525;41.240;16.500;2023-03-04T10:32:19;101085.28;;;19.18;62.11
35419;BME280;21525;41.240;16.500;2023-03-04T10:34:45;101075.59;;;19.19;61.70
35419;BME280;21525;41.240;16.500;2023-03-04T10:37:12;101074.72;;;18.77;62.63
35419;BME280;21525;41.240;16.500;2023-03-04T10:44:52;101074.59;;;19.62;61.21
35419;BME280;21525;41.240;16.500;2023-03-04T10:47:18;101058.81;;;19.99;61.01
35419;BME280;21525;41.240;16.500;2023-03-04T10:49:55;101064.16;;;19.98;59.93
35419;BME280;21525;41.240;16.500;2023-03-04T10:52:48;101057.84;;;19.63;60.05
35419;BME280;21525;41.240;16.500;2023-03-04T10:55:28;101058.44;;;19.88;59.90
35419;BME280;21525;41.240;16.500;2023-03-04T10:58:03;101051.72;;;20.19;59.27
35419;BME280;21525;41.240;16.500;2023-03-04T11:08:41;101041.94;;;19.64;60.23
35419;BME280;21525;41.240;16.500;2023-03-04T11:11:30;101051.00;;;19.38;62.10
35419;BME280;21525;41.240;16.500;2023-03-04T11:14:13;101035.84;;;19.23;61.53
35419;BME280;21525;41.240;16.500;2023-03-04T11:16:52;101051.47;;;19.07;63.82
35419;BME280;21525;41.240;16.500;2023-03-04T11:19:19;101050.06;;;19.19;63.01
35419;BME280;21525;41.240;16.500;2023-03-04T11:21:46;101053.97;;;19.31;64.08
35419;BME280;21525;41.240;16.500;2023-03-04T11:24:20;101052.16;;;19.72;62.73
35419;BME280;21525;41.240;16.500;2023-03-04T11:26:55;101054.78;;;19.72;62.66
35419;BME280;21525;41.240;16.500;2023-03-04T11:29:27;101043.94;;;19.19;64.51
35419;BME280;21525;41.240;16.500;2023-03-04T11:32:14;101048.47;;;19.76;64.37
35419;BME280;21525;41.240;16.500;2023-03-04T11:40:22;101051.94;;;19.37;70.38
35419;BME280;21525;41.240;16.500;2023-03-04T11:42:56;101047.00;;;19.09;75.43
35419;BME280;21525;41.240;16.500;2023-03-04T11:48:36;101039.75;;;19.74;68.70
35419;BME280;21525;41.240;16.500;2023-03-04T11:51:19;101039.09;;;19.88;67.05
35419;BME280;21525;41.240;16.500;2023-03-04T11:54:01;101038.09;;;20.47;63.38
35419;BME280;21525;41.240;16.500;2023-03-04T11:56:52;101032.16;;;20.41;62.04
35419;BME280;21525;41.240;16.500;2023-03-04T12:05:09;101021.25;;;20.11;59.55
35419;BME280;21525;41.240;16.500;2023-03-04T12:28:03;101001.44;;;20.20;59.11
35419;BME280;21525;41.240;16.500;2023-03-04T12:45:26;100990.09;;;20.37;nan
35419;BME280;21525;41.240;16.500;2023-03-04T12:53:34;100976.44;;;20.98;60.84
35419;BME280;21525;41.240;16.500;2023-03-04T12:56:02;100973.63;;;21.01;59.93
35419;BME280;21525;41.240;16.500;2023-03-04T12:58:30;100977.66;;;21.25;58.36
35419;BME280;21525;41.240;16.500;2023-03-04T13:01:17;100975.97;;;20.90;60.39
35419;BME280;21525;41.240;16.500;2023-03-04T13:04:01;100986.25;;;20.78;59.96
35419;BME280;21525;41.240;16.500;2023-03-04T13:06:40;100965.84;;;21.64;57.44
35419;BME280;21525;41.240;16.500;2023-03-04T13:14:36;100967.03;;;21.42;56.27
35419;BME280;21525;41.240;16.500;2023-03-04T13:20:21;100964.66;;;21.21;55.73
35419;BME280;21525;41.240;16.500;2023-03-04T13:35:47;100951.47;;;21.36;53.30
35419;BME280;21525;41.240;16.500;2023-03-04T13:43:51;100953.72;;;20.94;57.26
35419;BME280;21525;41.240;16.500;2023-03-04T13:53:54;100951.91;;;19.89;57.04
35419;BME280;21525;41.240;16.500;2023-03-04T14:04:31;100942.84;;;20.48;57.29
35419;BME280;21525;41.240;16.500;2023-03-04T14:06:59;100958.69;;;20.31;57.36
35419;BME280;21525;41.240;16.500;2023-03-04T14:09:30;100956.91;;;20.31;55.57
35419;BME280;21525;41.240;16.500;2023-03-04T14:11:58;100968.34;;;19.77;55.95
35419;BME280;21525;41.240;16.500;2023-03-04T14:14:46;100956.69;;;20.00;56.45
35419;BME280;21525;41.240;16.500;2023-03-04T14:17:19;100963.47;;;19.87;56.95
35419;BME280;21525;41.240;16.500;2023-03-04T14:19:48;100954.97;;;20.35;56.33
35419;BME280;21525;41.240;16.500;2023-03-04T14:22:38;100954.78;;;20.21;56.11
35419;BME280;21525;41.240;16.500;2023-03-04T14:25:19;100955.41;;;20.26;54.75
35419;BME280;21525;41.240;16.500;2023-03-04T14:27:46;100950.75;;;19.95;55.00
35419;BME280;21525;41.240;16.500;2023-03-04T14:32:44;100948.84;;;20.52;53.57
35419;BME280;21525;41.240;16.500;2023-03-04T14:35:23;100952.69;;;20.27;53.82
35419;BME280;21525;41.240;16.500;2023-03-04T14:40:26;100950.56;;;20.70;52.51
35419;BME280;21525;41.240;16.500;2023-03-04T14:42:59;100949.88;;;20.66;52.76
35419;BME280;21525;41.240;16.500;2023-03-04T14:45:27;100957.69;;;21.02;51.73
35419;BME280;21525;41.240;16.500;2023-03-04T14:47:57;100942.97;;;20.97;51.73
35419;BME280;21525;41.240;16.500;2023-03-04T14:50:24;100951.81;;;20.63;52.02
35419;BME280;21525;41.240;16.500;2023-03-04T14:55:31;100943.59;;;21.02;52.52
35419;BME280;21525;41.240;16.500;2023-03-04T14:58:19;100945.78;;;20.94;52.27